sensor_id;sensor_type;location;lat;lon;timestamp;P1;durP1;ratioP1;P2;durP2;ratioP2
26106;SDS011;13866;50.748;12.630;2023-02-11T00:01:45;35.33;;;25.57;;
26106;SDS011;13866;50.748;12.630;2023-02-11T00:04:11;41.47;;;26.87;;
26106;SDS011;13866;50.748;12.630;2023-02-11T00:06:36;44.10;;;27.03;;
26106;SDS011;13866;50.748;12.630;2023-02-11T00:09:02;40.90;;;27.03;;
26106;SDS011;13866;50.748;12.630;2023-02-11T00:11:27;46.30;;;26.90;;
26106;SDS011;13866;50.748;12.630;2023-02-11T00:13:56;39.00;;;26.90;;
26106;SDS011;13866;50.748;12.630;2023-02-11T00:16:26;37.13;;;26.20;;
26106;SDS011;13866;50.748;12.630;2023-02-11T00:18:52;41.37;;;27.97;;
26106;SDS011;13866;50.748;12.630;2023-02-11T00:21:20;37.90;;;26.47;;
26106;SDS011;13866;50.748;12.630;2023-02-11T00:23:46;42.03;;;27.53;;
26106;SDS011;13866;50.748;12.630;2023-02-11T00:28:39;39.93;;;26.90;;
26106;SDS011;13866;50.748;12.630;2023-02-11T00:31:05;33.77;;;25.53;;
26106;SDS011;13866;50.748;12.630;2023-02-11T00:33:30;35.87;;;25.87;;
26106;SDS011;13866;50.748;12.630;2023-02-11T00:35:56;37.63;;;26.97;;
26106;SDS011;13866;50.748;12.630;2023-02-11T00:38:21;38.60;;;26.03;;
26106;SDS011;13866;50.748;12.630;2023-02-11T00:40:47;37.17;;;27.23;;
26106;SDS011;13866;50.748;12.630;2023-02-11T00:43:12;42.13;;;26.70;;
26106;SDS011;13866;50.748;12.630;2023-02-11T00:45:38;38.13;;;26.33;;
26106;SDS011;13866;50.748;12.630;2023-02-11T00:48:03;39.00;;;26.87;;
26106;SDS011;13866;50.748;12.630;2023-02-11T00:50:29;36.57;;;25.43;;
26106;SDS011;13866;50.748;12.630;2023-02-11T00:52:54;33.30;;;25.97;;
26106;SDS011;13866;50.748;12.630;2023-02-11T00:55:20;43.50;;;28.87;;
26106;SDS011;13866;50.748;12.630;2023-02-11T00:57:45;41.80;;;25.07;;
26106;SDS011;13866;50.748;12.630;2023-02-11T01:00:11;34.27;;;25.97;;
26106;SDS011;13866;50.748;12.630;2023-02-11T01:02:37;46.03;;;26.27;;
26106;SDS011;13866;50.748;12.630;2023-02-11T01:05:03;32.40;;;24.10;;
26106;SDS011;13866;50.748;12.630;2023-02-11T01:07:29;40.07;;;25.87;;
26106;SDS011;13866;50.748;12.630;2023-02-11T01:09:55;35.87;;;26.03;;
26106;SDS011;13866;50.748;12.630;2023-02-11T01:12:21;34.90;;;25.67;;
26106;SDS011;13866;50.748;12.630;2023-02-11T01:14:46;32.77;;;23.40;;
26106;SDS011;13866;50.748;12.630;2023-02-11T01:17:12;32.30;;;24.00;;
26106;SDS011;13866;50.748;12.630;2023-02-11T01:19:38;36.33;;;24.57;;
26106;SDS011;13866;50.748;12.630;2023-02-11T01:22:03;33.43;;;24.97;;
26106;SDS011;13866;50.748;12.630;2023-02-11T01:24:29;34.73;;;24.33;;
26106;SDS011;13866;50.748;12.630;2023-02-11T01:26:54;34.90;;;26.47;;
26106;SDS011;13866;50.748;12.630;2023-02-11T01:29:20;30.60;;;22.93;;
26106;SDS011;13866;50.748;12.630;2023-02-11T01:31:46;33.73;;;24.17;;
26106;SDS011;13866;50.748;12.630;2023-02-11T01:34:12;38.97;;;27.10;;
26106;SDS011;13866;50.748;12.630;2023-02-11T01:36:38;35.93;;;25.57;;
26106;SDS011;13866;50.748;12.630;2023-02-11T01:39:04;37.70;;;26.37;;
26106;SDS011;13866;50.748;12.630;2023-02-11T01:41:29;37.70;;;26.10;;
26106;SDS011;13866;50.748;12.630;2023-02-11T01:43:55;33.07;;;25.00;;
26106;SDS011;13866;50.748;12.630;2023-02-11T01:46:28;38.27;;;26.60;;
26106;SDS011;13866;50.748;12.630;2023-02-11T01:49:05;34.87;;;26.73;;
26106;SDS011;13866;50.748;12.630;2023-02-11T01:51:36;40.30;;;27.00;;
26106;SDS011;13866;50.748;12.630;2023-02-11T01:54:08;38.10;;;25.07;;
26106;SDS011;13866;50.748;12.630;2023-02-11T01:56:56;35.73;;;25.13;;
26106;SDS011;13866;50.748;12.630;2023-02-11T01:59:46;30.33;;;23.43;;
26106;SDS011;13866;50.748;12.630;2023-02-11T02:02:24;33.60;;;25.90;;
26106;SDS011;13866;50.748;12.630;2023-02-11T02:07:55;31.10;;;23.83;;
26106;SDS011;13866;50.748;12.630;2023-02-11T02:10:33;32.33;;;23.20;;
26106;SDS011;13866;50.748;12.630;2023-02-11T02:13:00;37.83;;;26.40;;
26106;SDS011;13866;50.748;12.630;2023-02-11T02:15:27;40.53;;;25.70;;
26106;SDS011;13866;50.748;12.630;2023-02-11T02:18:00;36.07;;;24.97;;
26106;SDS011;13866;50.748;12.630;2023-02-11T02:20:40;37.23;;;26.17;;
26106;SDS011;13866;50.748;12.630;2023-02-11T02:23:45;32.47;;;23.90;;
26106;SDS011;13866;50.748;12.630;2023-02-11T02:26:50;29.87;;;22.40;;
26106;SDS011;13866;50.748;12.630;2023-02-11T02:29:30;34.00;;;22.67;;
26106;SDS011;13866;50.748;12.630;2023-02-11T02:32:15;30.33;;;23.07;;
26106;SDS011;13866;50.748;12.630;2023-02-11T02:35:09;31.63;;;23.60;;
26106;SDS011;13866;50.748;12.630;2023-02-11T02:40:16;32.43;;;24.37;;
26106;SDS011;13866;50.748;12.630;2023-02-11T02:42:57;33.87;;;24.67;;
26106;SDS011;13866;50.748;12.630;2023-02-11T02:45:25;35.00;;;24.97;;
26106;SDS011;13866;50.748;12.630;2023-02-11T02:47:50;31.40;;;24.03;;
26106;SDS011;13866;50.748;12.630;2023-02-11T02:50:16;30.70;;;22.37;;
26106;SDS011;13866;50.748;12.630;2023-02-11T02:52:56;33.50;;;24.20;;
26106;SDS011;13866;50.748;12.630;2023-02-11T02:55:55;36.03;;;23.50;;
26106;SDS011;13866;50.748;12.630;2023-02-11T02:58:33;31.87;;;24.77;;
26106;SDS011;13866;50.748;12.630;2023-02-11T03:01:25;35.73;;;24.10;;
26106;SDS011;13866;50.748;12.630;2023-02-11T03:09:15;33.53;;;23.83;;
26106;SDS011;13866;50.748;12.630;2023-02-11T03:11:49;31.90;;;25.33;;
26106;SDS011;13866;50.748;12.630;2023-02-11T03:14:16;35.33;;;23.37;;
26106;SDS011;13866;50.748;12.630;2023-02-11T03:16:42;33.53;;;25.23;;
26106;SDS011;13866;50.748;12.630;2023-02-11T03:19:14;34.40;;;22.67;;
26106;SDS011;13866;50.748;12.630;2023-02-11T03:21:43;33.53;;;22.10;;
26106;SDS011;13866;50.748;12.630;2023-02-11T03:24:33;31.37;;;24.57;;
26106;SDS011;13866;50.748;12.630;2023-02-11T03:27:03;34.77;;;24.20;;
26106;SDS011;13866;50.748;12.630;2023-02-11T03:29:54;31.77;;;22.97;;
26106;SDS011;13866;50.748;12.630;2023-02-11T03:32:32;36.77;;;25.20;;
26106;SDS011;13866;50.748;12.630;2023-02-11T03:35:03;34.10;;;23.50;;
26106;SDS011;13866;50.748;12.630;2023-02-11T03:37:39;28.27;;;23.37;;
26106;SDS011;13866;50.748;12.630;2023-02-11T03:40:14;36.20;;;23.33;;
26106;SDS011;13866;50.748;12.630;2023-02-11T03:42:55;31.20;;;22.77;;
26106;SDS011;13866;50.748;12.630;2023-02-11T03:45:26;31.03;;;22.43;;
26106;SDS011;13866;50.748;12.630;2023-02-11T03:47:59;34.07;;;23.70;;
26106;SDS011;13866;50.748;12.630;2023-02-11T03:50:47;31.03;;;23.10;;
26106;SDS011;13866;50.748;12.630;2023-02-11T03:53:14;40.47;;;25.73;;
26106;SDS011;13866;50.748;12.630;2023-02-11T03:55:41;33.07;;;23.97;;
26106;SDS011;13866;50.748;12.630;2023-02-11T03:58:08;35.50;;;25.30;;
26106;SDS011;13866;50.748;12.630;2023-02-11T04:00:34;32.63;;;23.57;;
26106;SDS011;13866;50.748;12.630;2023-02-11T04:03:03;31.93;;;23.60;;
26106;SDS011;13866;50.748;12.630;2023-02-11T04:05:29;30.83;;;22.60;;
26106;SDS011;13866;50.748;12.630;2023-02-11T04:07:55;33.70;;;24.70;;
26106;SDS011;13866;50.748;12.630;2023-02-11T04:10:20;35.60;;;24.97;;
26106;SDS011;13866;50.748;12.630;2023-02-11T04:12:46;34.20;;;24.90;;
26106;SDS011;13866;50.748;12.630;2023-02-11T04:15:11;27.90;;;22.20;;
26106;SDS011;13866;50.748;12.630;2023-02-11T04:17:37;29.23;;;23.63;;
26106;SDS011;13866;50.748;12.630;2023-02-11T04:20:03;32.80;;;23.63;;
26106;SDS011;13866;50.748;12.630;2023-02-11T04:22:29;31.33;;;23.17;;
26106;SDS011;13866;50.748;12.630;2023-02-11T04:24:54;30.47;;;22.50;;
26106;SDS011;13866;50.748;12.630;2023-02-11T04:27:20;32.27;;;23.83;;
26106;SDS011;13866;50.748;12.630;2023-02-11T04:29:46;38.30;;;22.53;;
26106;SDS011;13866;50.748;12.630;2023-02-11T04:32:11;34.77;;;24.77;;
26106;SDS011;13866;50.748;12.630;2023-02-11T04:34:37;36.27;;;24.93;;
26106;SDS011;13866;50.748;12.630;2023-02-11T04:37:03;34.33;;;23.27;;
26106;SDS011;13866;50.748;12.630;2023-02-11T04:39:29;37.07;;;25.50;;
26106;SDS011;13866;50.748;12.630;2023-02-11T04:41:54;31.80;;;23.87;;
26106;SDS011;13866;50.748;12.630;2023-02-11T04:44:20;33.37;;;25.27;;
26106;SDS011;13866;50.748;12.630;2023-02-11T04:46:46;30.93;;;22.73;;
26106;SDS011;13866;50.748;12.630;2023-02-11T04:49:12;32.53;;;22.80;;
26106;SDS011;13866;50.748;12.630;2023-02-11T04:51:38;34.53;;;24.80;;
26106;SDS011;13866;50.748;12.630;2023-02-11T04:54:04;32.93;;;24.03;;
26106;SDS011;13866;50.748;12.630;2023-02-11T04:56:30;39.17;;;23.30;;
26106;SDS011;13866;50.748;12.630;2023-02-11T04:58:55;29.93;;;23.63;;
26106;SDS011;13866;50.748;12.630;2023-02-11T05:01:21;34.10;;;25.50;;
26106;SDS011;13866;50.748;12.630;2023-02-11T05:03:47;35.70;;;25.40;;
26106;SDS011;13866;50.748;12.630;2023-02-11T05:06:12;31.43;;;24.30;;
26106;SDS011;13866;50.748;12.630;2023-02-11T05:08:38;32.37;;;25.30;;
26106;SDS011;13866;50.748;12.630;2023-02-11T05:11:04;30.90;;;23.50;;
26106;SDS011;13866;50.748;12.630;2023-02-11T05:13:30;32.80;;;23.43;;
26106;SDS011;13866;50.748;12.630;2023-02-11T05:15:55;28.83;;;23.73;;
26106;SDS011;13866;50.748;12.630;2023-02-11T05:18:21;33.60;;;23.67;;
26106;SDS011;13866;50.748;12.630;2023-02-11T05:20:47;44.37;;;26.30;;
26106;SDS011;13866;50.748;12.630;2023-02-11T05:23:12;34.90;;;24.87;;
26106;SDS011;13866;50.748;12.630;2023-02-11T05:25:38;35.10;;;24.67;;
26106;SDS011;13866;50.748;12.630;2023-02-11T05:28:03;32.43;;;24.20;;
26106;SDS011;13866;50.748;12.630;2023-02-11T05:30:29;33.63;;;24.27;;
26106;SDS011;13866;50.748;12.630;2023-02-11T05:32:54;31.43;;;22.50;;
26106;SDS011;13866;50.748;12.630;2023-02-11T05:35:20;40.33;;;23.70;;
26106;SDS011;13866;50.748;12.630;2023-02-11T05:37:46;29.83;;;23.40;;
26106;SDS011;13866;50.748;12.630;2023-02-11T05:40:11;28.53;;;22.90;;
26106;SDS011;13866;50.748;12.630;2023-02-11T05:42:37;33.23;;;23.93;;
26106;SDS011;13866;50.748;12.630;2023-02-11T05:45:03;36.07;;;23.73;;
26106;SDS011;13866;50.748;12.630;2023-02-11T05:47:28;29.63;;;23.53;;
26106;SDS011;13866;50.748;12.630;2023-02-11T05:49:54;35.20;;;23.00;;
26106;SDS011;13866;50.748;12.630;2023-02-11T05:52:20;35.70;;;24.00;;
26106;SDS011;13866;50.748;12.630;2023-02-11T05:54:46;35.27;;;23.27;;
26106;SDS011;13866;50.748;12.630;2023-02-11T05:57:11;33.60;;;25.20;;
26106;SDS011;13866;50.748;12.630;2023-02-11T05:59:37;31.27;;;22.67;;
26106;SDS011;13866;50.748;12.630;2023-02-11T06:02:03;35.53;;;23.53;;
26106;SDS011;13866;50.748;12.630;2023-02-11T06:04:28;31.67;;;22.63;;
26106;SDS011;13866;50.748;12.630;2023-02-11T06:06:54;31.83;;;24.97;;
26106;SDS011;13866;50.748;12.630;2023-02-11T06:09:19;39.00;;;24.27;;
26106;SDS011;13866;50.748;12.630;2023-02-11T06:11:45;33.97;;;23.10;;
26106;SDS011;13866;50.748;12.630;2023-02-11T06:14:10;40.30;;;24.50;;
26106;SDS011;13866;50.748;12.630;2023-02-11T06:16:36;37.40;;;25.10;;
26106;SDS011;13866;50.748;12.630;2023-02-11T06:19:01;34.10;;;25.40;;
26106;SDS011;13866;50.748;12.630;2023-02-11T06:21:27;34.70;;;23.77;;
26106;SDS011;13866;50.748;12.630;2023-02-11T06:23:52;30.50;;;24.37;;
26106;SDS011;13866;50.748;12.630;2023-02-11T06:26:19;28.67;;;22.47;;
26106;SDS011;13866;50.748;12.630;2023-02-11T06:28:46;34.57;;;24.53;;
26106;SDS011;13866;50.748;12.630;2023-02-11T06:31:11;37.73;;;25.50;;
26106;SDS011;13866;50.748;12.630;2023-02-11T06:33:37;37.63;;;25.77;;
26106;SDS011;13866;50.748;12.630;2023-02-11T06:36:03;32.30;;;23.97;;
26106;SDS011;13866;50.748;12.630;2023-02-11T06:38:35;32.90;;;23.90;;
26106;SDS011;13866;50.748;12.630;2023-02-11T06:41:01;35.57;;;26.10;;
26106;SDS011;13866;50.748;12.630;2023-02-11T06:43:27;37.73;;;24.17;;
26106;SDS011;13866;50.748;12.630;2023-02-11T06:45:52;33.60;;;25.50;;
26106;SDS011;13866;50.748;12.630;2023-02-11T06:48:19;37.00;;;26.13;;
26106;SDS011;13866;50.748;12.630;2023-02-11T06:50:44;33.53;;;25.17;;
26106;SDS011;13866;50.748;12.630;2023-02-11T06:53:10;42.37;;;26.37;;
26106;SDS011;13866;50.748;12.630;2023-02-11T06:55:35;37.73;;;27.10;;
26106;SDS011;13866;50.748;12.630;2023-02-11T06:58:01;39.17;;;26.97;;
26106;SDS011;13866;50.748;12.630;2023-02-11T07:00:26;32.90;;;23.93;;
26106;SDS011;13866;50.748;12.630;2023-02-11T07:02:53;39.03;;;27.13;;
26106;SDS011;13866;50.748;12.630;2023-02-11T07:05:19;39.77;;;28.03;;
26106;SDS011;13866;50.748;12.630;2023-02-11T07:07:46;35.07;;;27.23;;
26106;SDS011;13866;50.748;12.630;2023-02-11T07:10:11;37.50;;;26.40;;
26106;SDS011;13866;50.748;12.630;2023-02-11T07:12:37;38.37;;;27.43;;
26106;SDS011;13866;50.748;12.630;2023-02-11T07:15:03;38.33;;;26.20;;
26106;SDS011;13866;50.748;12.630;2023-02-11T07:17:29;39.90;;;28.40;;
26106;SDS011;13866;50.748;12.630;2023-02-11T07:19:54;41.13;;;28.90;;
26106;SDS011;13866;50.748;12.630;2023-02-11T07:22:20;41.83;;;28.93;;
26106;SDS011;13866;50.748;12.630;2023-02-11T07:24:45;40.57;;;28.77;;
26106;SDS011;13866;50.748;12.630;2023-02-11T07:27:11;41.93;;;29.33;;
26106;SDS011;13866;50.748;12.630;2023-02-11T07:29:36;45.33;;;30.47;;
26106;SDS011;13866;50.748;12.630;2023-02-11T07:32:02;42.73;;;28.37;;
26106;SDS011;13866;50.748;12.630;2023-02-11T07:34:27;42.07;;;28.23;;
26106;SDS011;13866;50.748;12.630;2023-02-11T07:36:53;39.50;;;26.17;;
26106;SDS011;13866;50.748;12.630;2023-02-11T07:39:18;37.80;;;29.33;;
26106;SDS011;13866;50.748;12.630;2023-02-11T07:41:45;43.37;;;29.60;;
26106;SDS011;13866;50.748;12.630;2023-02-11T07:44:12;45.10;;;29.17;;
26106;SDS011;13866;50.748;12.630;2023-02-11T07:46:38;44.40;;;29.27;;
26106;SDS011;13866;50.748;12.630;2023-02-11T07:49:07;42.37;;;30.23;;
26106;SDS011;13866;50.748;12.630;2023-02-11T07:51:32;41.20;;;29.57;;
26106;SDS011;13866;50.748;12.630;2023-02-11T07:53:58;45.93;;;29.23;;
26106;SDS011;13866;50.748;12.630;2023-02-11T07:56:24;44.83;;;30.87;;
26106;SDS011;13866;50.748;12.630;2023-02-11T07:58:50;60.93;;;35.57;;
26106;SDS011;13866;50.748;12.630;2023-02-11T08:01:17;43.13;;;30.67;;
26106;SDS011;13866;50.748;12.630;2023-02-11T08:03:46;48.13;;;30.57;;
26106;SDS011;13866;50.748;12.630;2023-02-11T08:06:13;47.37;;;32.30;;
26106;SDS011;13866;50.748;12.630;2023-02-11T08:08:39;43.50;;;30.53;;
26106;SDS011;13866;50.748;12.630;2023-02-11T08:11:27;55.23;;;33.87;;
26106;SDS011;13866;50.748;12.630;2023-02-11T08:13:53;53.53;;;32.33;;
26106;SDS011;13866;50.748;12.630;2023-02-11T08:16:20;44.10;;;30.40;;
26106;SDS011;13866;50.748;12.630;2023-02-11T08:18:50;43.33;;;31.90;;
26106;SDS011;13866;50.748;12.630;2023-02-11T08:21:16;49.40;;;32.47;;
26106;SDS011;13866;50.748;12.630;2023-02-11T08:23:43;55.37;;;32.90;;
26106;SDS011;13866;50.748;12.630;2023-02-11T08:26:10;44.60;;;30.57;;
26106;SDS011;13866;50.748;12.630;2023-02-11T08:28:39;47.53;;;29.60;;
26106;SDS011;13866;50.748;12.630;2023-02-11T08:31:12;54.30;;;34.53;;
26106;SDS011;13866;50.748;12.630;2023-02-11T08:33:40;48.87;;;30.70;;
26106;SDS011;13866;50.748;12.630;2023-02-11T08:36:09;47.57;;;31.00;;
26106;SDS011;13866;50.748;12.630;2023-02-11T08:38:40;41.10;;;28.47;;
26106;SDS011;13866;50.748;12.630;2023-02-11T08:41:07;49.73;;;32.00;;
26106;SDS011;13866;50.748;12.630;2023-02-11T08:43:33;44.10;;;30.97;;
26106;SDS011;13866;50.748;12.630;2023-02-11T08:45:59;43.10;;;29.10;;
26106;SDS011;13866;50.748;12.630;2023-02-11T08:48:25;47.93;;;30.80;;
26106;SDS011;13866;50.748;12.630;2023-02-11T08:50:52;49.00;;;28.70;;
26106;SDS011;13866;50.748;12.630;2023-02-11T08:53:18;43.83;;;27.90;;
26106;SDS011;13866;50.748;12.630;2023-02-11T08:55:48;45.00;;;29.90;;
26106;SDS011;13866;50.748;12.630;2023-02-11T08:58:17;49.17;;;31.27;;
26106;SDS011;13866;50.748;12.630;2023-02-11T09:00:43;48.10;;;32.93;;
26106;SDS011;13866;50.748;12.630;2023-02-11T09:03:12;38.13;;;29.70;;
26106;SDS011;13866;50.748;12.630;2023-02-11T09:05:42;45.87;;;31.13;;
26106;SDS011;13866;50.748;12.630;2023-02-11T09:08:08;44.53;;;29.60;;
26106;SDS011;13866;50.748;12.630;2023-02-11T09:10:34;47.67;;;32.33;;
26106;SDS011;13866;50.748;12.630;2023-02-11T09:13:00;49.37;;;30.30;;
26106;SDS011;13866;50.748;12.630;2023-02-11T09:15:25;47.20;;;31.83;;
26106;SDS011;13866;50.748;12.630;2023-02-11T09:17:51;46.80;;;32.73;;
26106;SDS011;13866;50.748;12.630;2023-02-11T09:20:17;42.47;;;29.93;;
26106;SDS011;13866;50.748;12.630;2023-02-11T09:22:42;46.67;;;32.23;;
26106;SDS011;13866;50.748;12.630;2023-02-11T09:25:08;50.07;;;31.40;;
26106;SDS011;13866;50.748;12.630;2023-02-11T09:27:34;49.13;;;32.50;;
26106;SDS011;13866;50.748;12.630;2023-02-11T09:30:00;45.03;;;30.70;;
26106;SDS011;13866;50.748;12.630;2023-02-11T09:32:25;45.03;;;29.70;;
26106;SDS011;13866;50.748;12.630;2023-02-11T09:34:51;46.27;;;29.57;;
26106;SDS011;13866;50.748;12.630;2023-02-11T09:37:16;42.83;;;30.57;;
26106;SDS011;13866;50.748;12.630;2023-02-11T09:39:42;37.37;;;29.13;;
26106;SDS011;13866;50.748;12.630;2023-02-11T09:45:11;38.47;;;28.27;;
26106;SDS011;13866;50.748;12.630;2023-02-11T09:47:53;58.73;;;34.43;;
26106;SDS011;13866;50.748;12.630;2023-02-11T09:50:24;53.57;;;33.90;;
26106;SDS011;13866;50.748;12.630;2023-02-11T09:53:00;51.20;;;35.20;;
26106;SDS011;13866;50.748;12.630;2023-02-11T09:58:06;60.67;;;38.27;;
26106;SDS011;13866;50.748;12.630;2023-02-11T10:00:39;51.13;;;32.53;;
26106;SDS011;13866;50.748;12.630;2023-02-11T10:06:18;54.07;;;31.83;;
26106;SDS011;13866;50.748;12.630;2023-02-11T10:09:21;48.60;;;31.10;;
26106;SDS011;13866;50.748;12.630;2023-02-11T10:14:56;49.13;;;30.60;;
26106;SDS011;13866;50.748;12.630;2023-02-11T10:22:58;39.20;;;30.63;;
26106;SDS011;13866;50.748;12.630;2023-02-11T10:27:54;50.67;;;32.63;;
26106;SDS011;13866;50.748;12.630;2023-02-11T10:30:25;44.20;;;31.50;;
26106;SDS011;13866;50.748;12.630;2023-02-11T10:35:28;54.10;;;32.53;;
26106;SDS011;13866;50.748;12.630;2023-02-11T10:37:54;45.73;;;30.53;;
26106;SDS011;13866;50.748;12.630;2023-02-11T10:40:21;42.50;;;29.33;;
26106;SDS011;13866;50.748;12.630;2023-02-11T10:42:54;48.90;;;29.90;;
26106;SDS011;13866;50.748;12.630;2023-02-11T10:48:00;40.53;;;28.80;;
26106;SDS011;13866;50.748;12.630;2023-02-11T10:50:30;48.80;;;29.97;;
26106;SDS011;13866;50.748;12.630;2023-02-11T10:53:17;46.63;;;30.50;;
26106;SDS011;13866;50.748;12.630;2023-02-11T10:55:48;39.73;;;29.17;;
26106;SDS011;13866;50.748;12.630;2023-02-11T10:58:26;50.53;;;31.47;;
26106;SDS011;13866;50.748;12.630;2023-02-11T11:00:55;47.57;;;29.20;;
26106;SDS011;13866;50.748;12.630;2023-02-11T11:03:24;38.57;;;27.27;;
26106;SDS011;13866;50.748;12.630;2023-02-11T11:05:52;45.57;;;28.27;;
26106;SDS011;13866;50.748;12.630;2023-02-11T11:08:21;38.20;;;26.73;;
26106;SDS011;13866;50.748;12.630;2023-02-11T11:11:02;41.03;;;29.40;;
26106;SDS011;13866;50.748;12.630;2023-02-11T11:13:37;39.13;;;28.30;;
26106;SDS011;13866;50.748;12.630;2023-02-11T11:18:39;41.90;;;28.63;;
26106;SDS011;13866;50.748;12.630;2023-02-11T11:21:10;41.60;;;28.27;;
26106;SDS011;13866;50.748;12.630;2023-02-11T11:23:36;42.53;;;29.70;;
26106;SDS011;13866;50.748;12.630;2023-02-11T11:26:08;37.90;;;26.70;;
26106;SDS011;13866;50.748;12.630;2023-02-11T11:28:57;42.97;;;27.10;;
26106;SDS011;13866;50.748;12.630;2023-02-11T11:31:25;41.13;;;26.53;;
26106;SDS011;13866;50.748;12.630;2023-02-11T11:33:55;40.40;;;28.43;;
26106;SDS011;13866;50.748;12.630;2023-02-11T11:36:29;44.43;;;29.73;;
26106;SDS011;13866;50.748;12.630;2023-02-11T11:38:59;43.40;;;28.03;;
26106;SDS011;13866;50.748;12.630;2023-02-11T11:41:32;40.40;;;29.20;;
26106;SDS011;13866;50.748;12.630;2023-02-11T11:46:25;41.03;;;27.57;;
26106;SDS011;13866;50.748;12.630;2023-02-11T11:48:55;38.13;;;26.27;;
26106;SDS011;13866;50.748;12.630;2023-02-11T11:51:28;42.60;;;27.10;;
26106;SDS011;13866;50.748;12.630;2023-02-11T11:54:02;43.40;;;28.90;;
26106;SDS011;13866;50.748;12.630;2023-02-11T11:56:34;43.10;;;29.67;;
26106;SDS011;13866;50.748;12.630;2023-02-11T11:59:10;36.20;;;27.50;;
26106;SDS011;13866;50.748;12.630;2023-02-11T12:01:50;37.30;;;26.40;;
26106;SDS011;13866;50.748;12.630;2023-02-11T12:04:38;36.03;;;26.40;;
26106;SDS011;13866;50.748;12.630;2023-02-11T12:13:15;34.70;;;26.43;;
26106;SDS011;13866;50.748;12.630;2023-02-11T12:15:55;39.90;;;27.40;;
26106;SDS011;13866;50.748;12.630;2023-02-11T12:18:44;32.30;;;24.67;;
26106;SDS011;13866;50.748;12.630;2023-02-11T12:24:11;37.50;;;26.83;;
26106;SDS011;13866;50.748;12.630;2023-02-11T12:29:30;36.47;;;26.63;;
26106;SDS011;13866;50.748;12.630;2023-02-11T12:38:36;38.47;;;27.07;;
26106;SDS011;13866;50.748;12.630;2023-02-11T12:41:24;41.60;;;26.03;;
26106;SDS011;13866;50.748;12.630;2023-02-11T12:47:38;37.67;;;24.90;;
26106;SDS011;13866;50.748;12.630;2023-02-11T12:50:19;35.77;;;25.63;;
26106;SDS011;13866;50.748;12.630;2023-02-11T12:53:09;35.07;;;25.97;;
26106;SDS011;13866;50.748;12.630;2023-02-11T12:55:41;32.20;;;24.77;;
26106;SDS011;13866;50.748;12.630;2023-02-11T12:58:12;39.60;;;28.00;;
26106;SDS011;13866;50.748;12.630;2023-02-11T13:00:48;32.10;;;23.43;;
26106;SDS011;13866;50.748;12.630;2023-02-11T13:03:18;43.47;;;26.23;;
26106;SDS011;13866;50.748;12.630;2023-02-11T13:06:07;32.50;;;23.43;;
26106;SDS011;13866;50.748;12.630;2023-02-11T13:08:46;40.47;;;27.23;;
26106;SDS011;13866;50.748;12.630;2023-02-11T13:11:28;38.00;;;26.37;;
26106;SDS011;13866;50.748;12.630;2023-02-11T13:14:03;31.80;;;23.93;;
26106;SDS011;13866;50.748;12.630;2023-02-11T13:16:43;34.93;;;26.73;;
26106;SDS011;13866;50.748;12.630;2023-02-11T13:24:24;30.87;;;24.50;;
26106;SDS011;13866;50.748;12.630;2023-02-11T13:30:01;33.77;;;25.97;;
26106;SDS011;13866;50.748;12.630;2023-02-11T13:33:40;33.57;;;24.93;;
26106;SDS011;13866;50.748;12.630;2023-02-11T13:35:47;32.80;;;25.17;;
26106;SDS011;13866;50.748;12.630;2023-02-11T13:38:32;33.67;;;25.57;;
26106;SDS011;13866;50.748;12.630;2023-02-11T13:41:03;30.37;;;22.77;;
26106;SDS011;13866;50.748;12.630;2023-02-11T13:43:58;31.13;;;23.27;;
26106;SDS011;13866;50.748;12.630;2023-02-11T13:46:27;32.77;;;24.10;;
26106;SDS011;13866;50.748;12.630;2023-02-11T13:49:16;32.23;;;25.23;;
26106;SDS011;13866;50.748;12.630;2023-02-11T13:51:54;29.13;;;23.07;;
26106;SDS011;13866;50.748;12.630;2023-02-11T13:54:22;35.63;;;24.67;;
26106;SDS011;13866;50.748;12.630;2023-02-11T13:59:48;35.90;;;25.57;;
26106;SDS011;13866;50.748;12.630;2023-02-11T14:10:54;31.93;;;22.80;;
26106;SDS011;13866;50.748;12.630;2023-02-11T14:13:31;33.13;;;22.90;;
26106;SDS011;13866;50.748;12.630;2023-02-11T14:21:27;31.00;;;23.07;;
26106;SDS011;13866;50.748;12.630;2023-02-11T14:28:52;26.80;;;22.87;;
26106;SDS011;13866;50.748;12.630;2023-02-11T14:31:25;28.30;;;22.67;;
26106;SDS011;13866;50.748;12.630;2023-02-11T14:34:02;33.93;;;24.27;;
26106;SDS011;13866;50.748;12.630;2023-02-11T14:36:49;30.07;;;22.43;;
26106;SDS011;13866;50.748;12.630;2023-02-11T14:42:23;29.27;;;22.13;;
26106;SDS011;13866;50.748;12.630;2023-02-11T14:44:51;30.33;;;24.00;;
26106;SDS011;13866;50.748;12.630;2023-02-11T14:47:20;30.40;;;23.60;;
26106;SDS011;13866;50.748;12.630;2023-02-11T14:49:54;30.87;;;23.40;;
26106;SDS011;13866;50.748;12.630;2023-02-11T14:52:23;27.27;;;21.27;;
26106;SDS011;13866;50.748;12.630;2023-02-11T14:57:42;27.43;;;21.23;;
26106;SDS011;13866;50.748;12.630;2023-02-11T15:00:20;28.17;;;22.30;;
26106;SDS011;13866;50.748;12.630;2023-02-11T15:02:47;34.57;;;23.53;;
26106;SDS011;13866;50.748;12.630;2023-02-11T15:05:21;28.33;;;21.23;;
26106;SDS011;13866;50.748;12.630;2023-02-11T15:07:56;27.70;;;21.20;;
26106;SDS011;13866;50.748;12.630;2023-02-11T15:10:42;25.40;;;20.37;;
26106;SDS011;13866;50.748;12.630;2023-02-11T15:13:13;29.20;;;22.23;;
26106;SDS011;13866;50.748;12.630;2023-02-11T15:15:42;31.53;;;23.33;;
26106;SDS011;13866;50.748;12.630;2023-02-11T15:18:12;27.90;;;22.43;;
26106;SDS011;13866;50.748;12.630;2023-02-11T15:20:45;28.67;;;22.37;;
26106;SDS011;13866;50.748;12.630;2023-02-11T15:23:13;25.47;;;21.40;;
26106;SDS011;13866;50.748;12.630;2023-02-11T15:25:46;25.20;;;20.57;;
26106;SDS011;13866;50.748;12.630;2023-02-11T15:28:23;26.73;;;22.03;;
26106;SDS011;13866;50.748;12.630;2023-02-11T15:30:59;27.87;;;20.43;;
26106;SDS011;13866;50.748;12.630;2023-02-11T15:33:27;26.30;;;21.37;;
26106;SDS011;13866;50.748;12.630;2023-02-11T15:35:54;27.70;;;22.40;;
26106;SDS011;13866;50.748;12.630;2023-02-11T15:38:21;27.40;;;20.97;;
26106;SDS011;13866;50.748;12.630;2023-02-11T15:40:52;27.80;;;21.40;;
26106;SDS011;13866;50.748;12.630;2023-02-11T15:43:24;30.17;;;22.20;;
26106;SDS011;13866;50.748;12.630;2023-02-11T15:46:05;28.60;;;21.43;;
26106;SDS011;13866;50.748;12.630;2023-02-11T15:48:36;26.20;;;22.07;;
26106;SDS011;13866;50.748;12.630;2023-02-11T15:51:11;25.03;;;20.60;;
26106;SDS011;13866;50.748;12.630;2023-02-11T15:53:47;27.60;;;20.50;;
26106;SDS011;13866;50.748;12.630;2023-02-11T15:58:53;29.70;;;20.90;;
26106;SDS011;13866;50.748;12.630;2023-02-11T16:01:28;28.70;;;21.60;;
26106;SDS011;13866;50.748;12.630;2023-02-11T16:03:55;29.57;;;23.10;;
26106;SDS011;13866;50.748;12.630;2023-02-11T16:06:40;34.33;;;26.07;;
26106;SDS011;13866;50.748;12.630;2023-02-11T16:11:35;29.10;;;22.03;;
26106;SDS011;13866;50.748;12.630;2023-02-11T16:16:58;32.27;;;24.23;;